createdAt,value
2023-05-07T00:01:20.306Z,100511.59
2023-05-07T00:03:53.317Z,100515.98
2023-05-07T00:06:27.959Z,100512.08
2023-05-07T00:09:02.162Z,100506.28
2023-05-07T00:11:37.339Z,100510.55
2023-05-07T00:14:10.665Z,100507.58
2023-05-07T00:16:44.181Z,100507.95
2023-05-07T00:19:17.048Z,100504.66
2023-05-07T00:21:50.152Z,100508.93
2023-05-07T00:24:23.034Z,100511.42
2023-05-07T00:26:56.077Z,100508.12
2023-05-07T00:29:28.694Z,100504.78
2023-05-07T00:32:01.546Z,100501.70
2023-05-07T00:34:34.328Z,100504.86
2023-05-07T00:37:08.600Z,100511.66
2023-05-07T00:39:41.520Z,100505.42
2023-05-07T00:42:14.513Z,100510.41
2023-05-07T00:44:47.643Z,100514.31
2023-05-07T00:47:20.801Z,100508.78
2023-05-07T00:49:53.536Z,100513.27
2023-05-07T00:52:28.352Z,100510.86
2023-05-07T00:55:03.428Z,100515.84
2023-05-07T00:57:40.569Z,100499.83
2023-05-07T01:00:15.057Z,100504.91
2023-05-07T01:02:48.763Z,100506.89
2023-05-07T01:05:23.328Z,100502.39
2023-05-07T01:07:56.681Z,100515.09
2023-05-07T01:10:31.333Z,100521.19
2023-05-07T01:13:04.750Z,100522.56
2023-05-07T01:15:38.114Z,100518.55
2023-05-07T01:18:11.393Z,100517.55
2023-05-07T01:20:44.964Z,100523.23
2023-05-07T01:23:18.923Z,100521.03
2023-05-07T01:25:56.146Z,100524.05
2023-05-07T01:28:30.801Z,100519.52
2023-05-07T01:31:07.429Z,100523.41
2023-05-07T01:33:41.701Z,100513.72
2023-05-07T01:36:15.333Z,100509.81
2023-05-07T01:38:51.712Z,100512.42
2023-05-07T01:41:24.859Z,100512.67
2023-05-07T01:43:58.944Z,100513.86
2023-05-07T01:46:34.591Z,100509.85
2023-05-07T01:49:07.526Z,100504.42
2023-05-07T01:51:40.703Z,100502.53
2023-05-07T01:54:13.733Z,100520.61
2023-05-07T01:56:48.414Z,100513.48
2023-05-07T01:59:21.869Z,100517.67
2023-05-07T02:01:54.776Z,100508.34
2023-05-07T02:04:27.909Z,100509.54
2023-05-07T02:07:01.048Z,100517.34
2023-05-07T02:09:36.153Z,100522.42
2023-05-07T02:12:09.334Z,100518.29
2023-05-07T02:14:42.413Z,100515.81
2023-05-07T02:17:15.573Z,100514.51
2023-05-07T02:19:48.455Z,100519.93
2023-05-07T02:22:21.647Z,100518.92
2023-05-07T02:24:54.675Z,100542.69
2023-05-07T02:27:27.520Z,100524.27
2023-05-07T02:30:01.085Z,100525.97
2023-05-07T02:32:34.988Z,100525.34
2023-05-07T02:35:09.260Z,100527.27
2023-05-07T02:37:42.279Z,100520.48
2023-05-07T02:40:15.356Z,100517.63
2023-05-07T02:42:48.241Z,100519.59
2023-05-07T02:45:21.093Z,100523.67
2023-05-07T02:47:54.980Z,100522.74
2023-05-07T02:50:28.511Z,100521.84
2023-05-07T02:53:01.745Z,100513.27
2023-05-07T02:55:35.469Z,100514.80
2023-05-07T02:58:08.366Z,100498.63
2023-05-07T03:00:41.637Z,100516.70
2023-05-07T03:03:25.239Z,100514.51
2023-05-07T03:05:58.048Z,100505.64
2023-05-07T03:08:31.372Z,100510.25
2023-05-07T03:11:04.508Z,100518.97
2023-05-07T03:13:37.666Z,100509.06
2023-05-07T03:16:10.588Z,100513.08
2023-05-07T03:18:43.684Z,100519.98
2023-05-07T03:21:16.943Z,100509.98
2023-05-07T03:23:49.883Z,100499.30
2023-05-07T03:26:22.573Z,100496.92
2023-05-07T03:28:55.447Z,100497.38
2023-05-07T03:31:28.976Z,100493.81
2023-05-07T03:34:02.513Z,100490.95
2023-05-07T03:36:36.249Z,100485.00
2023-05-07T03:39:09.550Z,100482.52
2023-05-07T03:41:44.665Z,100480.14
2023-05-07T03:44:17.652Z,100489.86
2023-05-07T03:46:51.468Z,100498.37
2023-05-07T03:49:24.602Z,100498.22
2023-05-07T03:51:57.850Z,100495.53
2023-05-07T03:54:31.166Z,100505.27
2023-05-07T03:57:04.669Z,100501.74
2023-05-07T03:59:38.377Z,100493.16
2023-05-07T04:02:12.805Z,100499.09
2023-05-07T04:04:45.864Z,100491.88
2023-05-07T04:07:18.924Z,100499.91
2023-05-07T04:09:53.427Z,100499.50
2023-05-07T04:12:26.833Z,100503.40
2023-05-07T04:14:59.797Z,100500.20
2023-05-07T04:17:33.734Z,100499.17
2023-05-07T04:20:09.455Z,100503.59
2023-05-07T04:22:42.924Z,100510.50
2023-05-07T04:25:15.874Z,100514.11
2023-05-07T04:27:55.418Z,100502.40
2023-05-07T04:30:29.761Z,100501.62
2023-05-07T04:33:02.921Z,100495.22
2023-05-07T04:35:37.616Z,100507.25
2023-05-07T04:38:11.281Z,100506.55
2023-05-07T04:40:44.609Z,100505.09
2023-05-07T04:43:19.402Z,100507.60
2023-05-07T04:45:54.910Z,100520.75
2023-05-07T04:48:30.241Z,100525.87
2023-05-07T04:51:03.904Z,100534.00
2023-05-07T04:53:37.638Z,100526.62
2023-05-07T04:56:10.797Z,100527.94
2023-05-07T04:58:45.746Z,100527.79
2023-05-07T05:01:19.035Z,100530.72
2023-05-07T05:03:51.744Z,100534.27
2023-05-07T05:06:25.643Z,100535.37
2023-05-07T05:08:58.396Z,100533.97
2023-05-07T05:11:31.685Z,100530.79
2023-05-07T05:14:05.511Z,100531.14
2023-05-07T05:16:38.549Z,100543.17
2023-05-07T05:19:11.621Z,100547.19
2023-05-07T05:21:45.229Z,100531.47
2023-05-07T05:24:18.256Z,100535.17
2023-05-07T05:26:51.254Z,100535.27
2023-05-07T05:29:24.628Z,100525.63
2023-05-07T05:31:57.510Z,100536.28
2023-05-07T05:34:30.822Z,100530.54
2023-05-07T05:37:04.763Z,100533.03
2023-05-07T05:39:38.090Z,100517.50
2023-05-07T05:42:11.852Z,100524.10
2023-05-07T05:44:44.727Z,100532.80
2023-05-07T05:47:17.970Z,100531.98
2023-05-07T05:49:50.959Z,100536.39
2023-05-07T05:52:25.159Z,100524.05
2023-05-07T05:54:59.605Z,100523.62
2023-05-07T05:57:33.378Z,100516.50
2023-05-07T06:00:09.459Z,100516.50
2023-05-07T06:02:45.362Z,100526.91
2023-05-07T06:05:20.199Z,100526.79
2023-05-07T06:07:53.874Z,100521.53
2023-05-07T06:10:28.474Z,100537.48
2023-05-07T06:13:01.452Z,100526.44
2023-05-07T06:15:35.065Z,100519.88
2023-05-07T06:18:09.748Z,100518.14
2023-05-07T06:20:42.912Z,100516.98
2023-05-07T06:23:18.229Z,100524.30
2023-05-07T06:25:54.132Z,100518.25
2023-05-07T06:28:29.038Z,100517.03
2023-05-07T06:31:21.974Z,100522.44
2023-05-07T06:33:56.972Z,100531.26
2023-05-07T06:36:32.169Z,100525.78
2023-05-07T06:39:06.520Z,100525.34
2023-05-07T06:41:40.307Z,100524.58
2023-05-07T06:44:15.008Z,100522.56
2023-05-07T06:46:49.472Z,100529.27
2023-05-07T06:49:22.358Z,100522.33
2023-05-07T06:51:55.684Z,100526.28
2023-05-07T06:54:29.271Z,100524.61
2023-05-07T06:57:02.678Z,100523.14
2023-05-07T06:59:36.066Z,100527.75
2023-05-07T07:02:09.921Z,100537.72
2023-05-07T07:04:43.269Z,100528.14
2023-05-07T07:07:16.480Z,100529.23
2023-05-07T07:09:52.694Z,100521.70
2023-05-07T07:12:27.324Z,100521.48
2023-05-07T07:15:00.198Z,100524.27
2023-05-07T07:17:33.732Z,100511.11
2023-05-07T07:20:07.852Z,100519.39
2023-05-07T07:22:40.682Z,100520.70
2023-05-07T07:25:14.027Z,100516.52
2023-05-07T07:27:47.390Z,100511.63
2023-05-07T07:30:20.453Z,100519.39
2023-05-07T07:32:54.115Z,100519.39
2023-05-07T07:35:27.048Z,100507.78
2023-05-07T07:38:00.194Z,100511.23
2023-05-07T07:40:33.207Z,100508.19
2023-05-07T07:43:07.329Z,100499.52
2023-05-07T07:45:41.192Z,100504.42
2023-05-07T07:48:14.217Z,100494.02
2023-05-07T07:50:47.365Z,100496.72
2023-05-07T07:53:21.201Z,100513.53
2023-05-07T07:55:58.934Z,100510.77
2023-05-07T07:58:29.651Z,100508.31
2023-05-07T08:01:02.907Z,100503.70
2023-05-07T08:03:36.741Z,100501.98
2023-05-07T08:06:09.816Z,100508.13
2023-05-07T08:08:42.786Z,100494.14
2023-05-07T08:11:16.341Z,100492.49
2023-05-07T08:13:50.004Z,100493.27
2023-05-07T08:16:24.131Z,100504.84
2023-05-07T08:18:58.134Z,100505.39
2023-05-07T08:21:34.428Z,100506.47
2023-05-07T08:24:07.393Z,100504.30
2023-05-07T08:26:41.358Z,100515.37
2023-05-07T08:29:14.794Z,100500.61
2023-05-07T08:31:47.995Z,100500.34
2023-05-07T08:34:20.844Z,100505.31
2023-05-07T08:36:54.300Z,100501.80
2023-05-07T08:39:27.880Z,100496.23
2023-05-07T08:42:09.563Z,100495.20
2023-05-07T08:44:43.141Z,100498.70
2023-05-07T08:47:16.332Z,100494.73
2023-05-07T08:49:51.071Z,100512.64
2023-05-07T08:52:24.398Z,100506.84
2023-05-07T08:54:57.657Z,100519.41
2023-05-07T08:57:31.035Z,100508.44
2023-05-07T09:00:08.376Z,100508.38
2023-05-07T09:02:42.029Z,100496.33
2023-05-07T09:05:16.093Z,100503.30
2023-05-07T09:07:49.266Z,100507.09
2023-05-07T09:10:23.930Z,100499.90
2023-05-07T09:12:57.409Z,100502.20
2023-05-07T09:15:32.096Z,100502.28
2023-05-07T09:18:05.454Z,100494.19
2023-05-07T09:20:40.448Z,100509.31
2023-05-07T09:23:13.646Z,100491.84
2023-05-07T09:25:46.815Z,100508.14
2023-05-07T09:28:24.375Z,100487.13
2023-05-07T09:30:58.910Z,100493.84
2023-05-07T09:33:32.452Z,100498.13
2023-05-07T09:36:08.532Z,100488.25
2023-05-07T09:38:42.261Z,100482.71
2023-05-07T09:41:16.328Z,100482.56
2023-05-07T09:44:03.668Z,100478.08
2023-05-07T09:46:40.681Z,100478.22
2023-05-07T09:49:24.558Z,100480.91
2023-05-07T09:51:59.039Z,100475.59
2023-05-07T09:54:34.039Z,100469.15
2023-05-07T09:57:08.336Z,100472.73
2023-05-07T09:59:41.689Z,100465.34
2023-05-07T10:02:14.809Z,100470.67
2023-05-07T10:04:49.907Z,100462.48
2023-05-07T10:07:24.886Z,100475.34
2023-05-07T10:10:01.279Z,100464.56
2023-05-07T10:12:38.632Z,100469.53
2023-05-07T10:15:15.740Z,100460.98
2023-05-07T10:17:51.180Z,100463.69
2023-05-07T10:20:24.395Z,100459.08
2023-05-07T10:22:59.003Z,100459.47
2023-05-07T10:25:35.164Z,100449.81
2023-05-07T10:28:12.066Z,100460.39
2023-05-07T10:31:27.704Z,100445.86
2023-05-07T10:34:01.692Z,100454.02
2023-05-07T10:36:38.274Z,100439.75
2023-05-07T10:39:10.581Z,100446.45
2023-05-07T10:41:44.353Z,100441.48
2023-05-07T10:44:29.295Z,100438.36
2023-05-07T10:47:15.676Z,100442.44
2023-05-07T10:49:55.054Z,100447.70
2023-05-07T10:52:31.223Z,100439.93
2023-05-07T10:55:23.581Z,100440.64
2023-05-07T10:58:34.529Z,100439.09
2023-05-07T11:01:14.012Z,100432.21
2023-05-07T11:04:19.594Z,100429.09
2023-05-07T11:07:27.623Z,100437.61
2023-05-07T11:10:05.921Z,100426.07
2023-05-07T11:12:48.750Z,100412.84
2023-05-07T11:15:41.120Z,100411.66
2023-05-07T11:18:20.924Z,100405.77
2023-05-07T11:20:57.483Z,100409.97
2023-05-07T11:23:42.912Z,100412.30
2023-05-07T11:26:21.052Z,100410.22
2023-05-07T11:28:55.741Z,100409.48
2023-05-07T11:31:31.276Z,100403.08
2023-05-07T11:34:05.212Z,100403.20
2023-05-07T11:36:41.902Z,100400.05
2023-05-07T11:39:37.212Z,100395.66
2023-05-07T11:42:09.984Z,100383.70
2023-05-07T11:44:47.543Z,100388.66
2023-05-07T11:47:21.865Z,100387.16
2023-05-07T11:49:56.699Z,100381.34
2023-05-07T11:52:29.924Z,100374.31
2023-05-07T11:55:04.933Z,100370.24
2023-05-07T11:57:37.860Z,100368.06
2023-05-07T12:00:11.985Z,100365.20
2023-05-07T12:02:48.410Z,100366.58
2023-05-07T12:05:21.864Z,100361.08
2023-05-07T12:07:58.499Z,100368.00
2023-05-07T12:10:57.290Z,100364.11
2023-05-07T12:13:31.231Z,100355.87
2023-05-07T12:16:07.104Z,100357.94
2023-05-07T12:18:40.626Z,100358.99
2023-05-07T12:21:13.513Z,100364.43
2023-05-07T12:23:46.422Z,100358.99
2023-05-07T12:26:19.139Z,100359.30
2023-05-07T12:28:52.353Z,100350.73
2023-05-07T12:31:25.205Z,100352.75
2023-05-07T12:33:58.401Z,100358.59
2023-05-07T12:36:40.596Z,100362.59
2023-05-07T12:39:13.541Z,100362.59
2023-05-07T12:42:00.834Z,100358.59
2023-05-07T12:44:35.973Z,100364.02
2023-05-07T12:47:08.957Z,100361.55
2023-05-07T12:49:41.806Z,100359.02
2023-05-07T12:52:15.060Z,100360.97
2023-05-07T12:54:47.956Z,100359.27
2023-05-07T12:57:22.575Z,100361.48
2023-05-07T12:59:59.890Z,100359.71
2023-05-07T13:02:37.247Z,100365.33
2023-05-07T13:05:10.673Z,100356.59
2023-05-07T13:07:46.223Z,100356.75
2023-05-07T13:10:19.240Z,100351.25
2023-05-07T13:12:53.001Z,100355.47
2023-05-07T13:15:27.862Z,100364.70
2023-05-07T13:18:00.801Z,100350.58
2023-05-07T13:20:34.140Z,100354.10
2023-05-07T13:23:06.997Z,100350.58
2023-05-07T13:25:40.557Z,100344.82
2023-05-07T13:28:13.849Z,100342.28
2023-05-07T13:30:48.449Z,100342.89
2023-05-07T13:33:21.673Z,100348.60
2023-05-07T13:35:56.443Z,100340.64
2023-05-07T13:38:30.659Z,100345.13
2023-05-07T13:41:03.631Z,100347.49
2023-05-07T13:43:37.073Z,100338.36
2023-05-07T13:46:10.622Z,100350.72
2023-05-07T13:48:43.794Z,100345.80
2023-05-07T13:51:16.649Z,100338.80
2023-05-07T13:53:49.809Z,100340.56
2023-05-07T13:56:23.271Z,100339.30
2023-05-07T13:59:00.210Z,100340.27
2023-05-07T14:01:30.742Z,100340.67
2023-05-07T14:04:03.871Z,100341.26
2023-05-07T14:06:36.660Z,100339.45
2023-05-07T14:09:09.727Z,100343.02
2023-05-07T14:11:43.104Z,100347.31
2023-05-07T14:14:16.282Z,100346.77
2023-05-07T14:16:50.724Z,100349.30
2023-05-07T14:19:24.433Z,100341.28
2023-05-07T14:21:59.183Z,100353.09
2023-05-07T14:24:38.123Z,100347.28
2023-05-07T14:27:07.231Z,100343.77
2023-05-07T14:29:40.203Z,100340.80
2023-05-07T14:32:13.343Z,100343.53
2023-05-07T14:34:46.591Z,100344.42
2023-05-07T14:37:21.237Z,100344.86
2023-05-07T14:39:54.151Z,100347.44
2023-05-07T14:42:27.000Z,100349.19
2023-05-07T14:45:00.130Z,100347.88
2023-05-07T14:47:33.417Z,100357.05
2023-05-07T14:50:07.148Z,100354.26
2023-05-07T14:52:40.557Z,100351.03
2023-05-07T14:55:14.179Z,100348.29
2023-05-07T14:57:47.505Z,100346.47
2023-05-07T15:00:21.065Z,100351.80
2023-05-07T15:02:54.302Z,100347.52
2023-05-07T15:05:27.167Z,100353.32
2023-05-07T15:08:00.096Z,100349.77
2023-05-07T15:10:32.980Z,100355.95
2023-05-07T15:13:05.971Z,100352.84
2023-05-07T15:15:38.850Z,100358.00
2023-05-07T15:18:11.911Z,100361.42
2023-05-07T15:20:45.352Z,100351.63
2023-05-07T15:23:18.370Z,100360.05
2023-05-07T15:25:53.269Z,100347.56
2023-05-07T15:28:26.491Z,100352.66
2023-05-07T15:30:59.658Z,100354.81
2023-05-07T15:33:32.233Z,100359.75
2023-05-07T15:36:05.354Z,100365.48
2023-05-07T15:38:38.657Z,100363.36
2023-05-07T15:41:11.691Z,100360.39
2023-05-07T15:43:49.888Z,100368.02
2023-05-07T15:46:25.870Z,100359.47
2023-05-07T15:48:59.296Z,100360.67
2023-05-07T15:51:32.311Z,100364.28
2023-05-07T15:54:05.221Z,100366.59
2023-05-07T15:56:38.586Z,100366.01
2023-05-07T15:59:13.069Z,100365.23
2023-05-07T16:01:45.978Z,100367.23
2023-05-07T16:04:19.153Z,100364.74
2023-05-07T16:06:52.908Z,100371.09
2023-05-07T16:09:27.434Z,100366.34
2023-05-07T16:12:01.180Z,100367.69
2023-05-07T16:14:34.661Z,100375.73
2023-05-07T16:17:15.270Z,100378.11
2023-05-07T16:19:49.425Z,100376.20
2023-05-07T16:22:30.029Z,100386.08
2023-05-07T16:25:05.809Z,100381.55
2023-05-07T16:27:41.282Z,100377.00
2023-05-07T16:30:14.420Z,100384.00
2023-05-07T16:32:47.651Z,100387.07
2023-05-07T16:35:20.577Z,100384.84
2023-05-07T16:37:53.345Z,100396.69
2023-05-07T16:40:26.792Z,100389.20
2023-05-07T16:42:59.550Z,100391.56
2023-05-07T16:45:32.541Z,100392.95
2023-05-07T16:48:05.753Z,100394.87
2023-05-07T16:50:39.733Z,100397.55
2023-05-07T16:53:13.282Z,100394.59
2023-05-07T16:55:46.335Z,100402.52
2023-05-07T16:58:19.513Z,100406.95
2023-05-07T17:00:52.518Z,100402.08
2023-05-07T17:03:25.726Z,100403.88
2023-05-07T17:05:59.294Z,100406.16
2023-05-07T17:08:32.339Z,100404.94
2023-05-07T17:11:05.150Z,100406.33
2023-05-07T17:13:38.288Z,100411.80
2023-05-07T17:16:11.350Z,100411.52
2023-05-07T17:18:44.246Z,100413.94
2023-05-07T17:21:17.226Z,100411.88
2023-05-07T17:23:50.445Z,100414.37
2023-05-07T17:26:23.437Z,100423.02
2023-05-07T17:28:56.222Z,100421.14
2023-05-07T17:31:29.185Z,100422.81
2023-05-07T17:34:02.343Z,100422.66
2023-05-07T17:36:35.679Z,100429.47
2023-05-07T17:39:08.576Z,100423.19
2023-05-07T17:41:41.698Z,100422.16
2023-05-07T17:44:14.873Z,100427.27
2023-05-07T17:46:47.886Z,100436.73
2023-05-07T17:49:21.583Z,100433.45
2023-05-07T17:51:55.793Z,100438.48
2023-05-07T17:54:30.510Z,100436.21
2023-05-07T17:57:03.674Z,100437.92
2023-05-07T17:59:37.469Z,100439.16
2023-05-07T18:02:10.790Z,100436.34
2023-05-07T18:04:43.985Z,100444.14
2023-05-07T18:07:16.826Z,100460.63
2023-05-07T18:09:49.939Z,100453.02
2023-05-07T18:12:24.003Z,100452.88
2023-05-07T18:14:57.326Z,100455.00
2023-05-07T18:17:30.742Z,100455.34
2023-05-07T18:20:06.547Z,100453.03
2023-05-07T18:22:40.527Z,100450.37
2023-05-07T18:25:13.533Z,100443.66
2023-05-07T18:27:46.740Z,100445.63
2023-05-07T18:30:19.667Z,100447.37
2023-05-07T18:32:53.058Z,100448.18
2023-05-07T18:35:26.009Z,100441.97
2023-05-07T18:37:58.801Z,100447.14
2023-05-07T18:40:31.842Z,100442.20
2023-05-07T18:43:06.742Z,100439.93
2023-05-07T18:45:40.946Z,100438.55
2023-05-07T18:48:15.830Z,100438.39
2023-05-07T18:50:48.495Z,100439.47
2023-05-07T18:53:21.353Z,100446.14
2023-05-07T18:55:54.771Z,100441.39
2023-05-07T18:58:27.630Z,100438.07
2023-05-07T19:01:01.497Z,100446.52
2023-05-07T19:03:34.048Z,100439.56
2023-05-07T19:06:07.252Z,100442.71
2023-05-07T19:08:40.430Z,100441.05
2023-05-07T19:11:13.315Z,100443.69
2023-05-07T19:13:46.262Z,100441.25
2023-05-07T19:16:19.160Z,100440.58
2023-05-07T19:18:52.494Z,100432.91
2023-05-07T19:21:25.815Z,100440.52
2023-05-07T19:23:58.755Z,100435.92
2023-05-07T19:26:31.610Z,100435.38
2023-05-07T19:29:16.359Z,100433.90
2023-05-07T19:31:39.018Z,100429.39
2023-05-07T19:34:13.676Z,100431.84
2023-05-07T19:36:45.562Z,100429.95
2023-05-07T19:39:18.728Z,100429.39
2023-05-07T19:41:52.629Z,100431.77
2023-05-07T19:44:26.163Z,100438.56
2023-05-07T19:47:02.174Z,100433.16
2023-05-07T19:49:36.035Z,100431.91
2023-05-07T19:52:08.790Z,100437.81
2023-05-07T19:54:41.660Z,100440.73
2023-05-07T19:57:15.654Z,100433.38
2023-05-07T19:59:49.340Z,100441.23
2023-05-07T20:02:22.353Z,100437.22
2023-05-07T20:04:55.562Z,100437.56
2023-05-07T20:07:29.284Z,100443.59
2023-05-07T20:10:02.137Z,100434.36
2023-05-07T20:12:35.034Z,100431.27
2023-05-07T20:15:09.184Z,100430.84
2023-05-07T20:17:42.091Z,100434.27
2023-05-07T20:20:15.363Z,100433.80
2023-05-07T20:22:48.666Z,100436.25
2023-05-07T20:25:21.667Z,100435.66
2023-05-07T20:27:54.738Z,100438.27
2023-05-07T20:30:28.162Z,100432.53
2023-05-07T20:33:01.327Z,100434.09
2023-05-07T20:35:34.815Z,100438.52
2023-05-07T20:38:07.604Z,100436.80
2023-05-07T20:40:41.693Z,100432.88
2023-05-07T20:43:14.340Z,100437.69
2023-05-07T20:45:47.341Z,100432.95
2023-05-07T20:48:20.886Z,100426.83
2023-05-07T20:50:54.009Z,100431.56
2023-05-07T20:53:29.013Z,100429.58
2023-05-07T20:56:02.280Z,100433.33
2023-05-07T20:58:34.990Z,100434.72
2023-05-07T21:01:08.022Z,100442.81
2023-05-07T21:03:40.780Z,100440.83
2023-05-07T21:06:13.485Z,100438.28
2023-05-07T21:08:46.216Z,100445.56
2023-05-07T21:11:19.136Z,100441.38
2023-05-07T21:13:52.233Z,100449.34
2023-05-07T21:16:25.431Z,100452.29
2023-05-07T21:18:58.344Z,100446.80
2023-05-07T21:21:31.491Z,100449.47
2023-05-07T21:24:04.304Z,100453.13
2023-05-07T21:26:37.176Z,100450.66
2023-05-07T21:29:10.149Z,100454.31
2023-05-07T21:31:43.149Z,100454.81
2023-05-07T21:34:15.927Z,100458.08
2023-05-07T21:36:48.767Z,100457.48
2023-05-07T21:39:22.936Z,100463.23
2023-05-07T21:41:57.110Z,100464.86
2023-05-07T21:44:33.448Z,100469.11
2023-05-07T21:47:06.547Z,100467.11
2023-05-07T21:49:41.265Z,100469.45
2023-05-07T21:52:15.857Z,100467.30
2023-05-07T21:54:48.628Z,100475.56
2023-05-07T21:57:21.724Z,100471.45
2023-05-07T21:59:54.565Z,100472.58
2023-05-07T22:02:27.694Z,100468.47
2023-05-07T22:05:00.797Z,100473.92
2023-05-07T22:07:33.933Z,100475.55
2023-05-07T22:10:08.188Z,100471.73
2023-05-07T22:12:43.071Z,100466.83
2023-05-07T22:15:15.893Z,100472.27
2023-05-07T22:17:48.687Z,100473.58
2023-05-07T22:20:21.786Z,100472.09
2023-05-07T22:22:57.498Z,100475.62
2023-05-07T22:25:35.932Z,100475.84
2023-05-07T22:28:08.662Z,100477.05
2023-05-07T22:30:41.959Z,100474.77
2023-05-07T22:33:15.087Z,100481.98
2023-05-07T22:35:48.413Z,100477.47
2023-05-07T22:38:21.951Z,100483.42
2023-05-07T22:40:54.891Z,100491.05
2023-05-07T22:43:27.815Z,100494.27
2023-05-07T22:46:02.255Z,100481.81
2023-05-07T22:48:35.878Z,100477.13
2023-05-07T22:51:10.221Z,100483.88
2023-05-07T22:53:43.017Z,100481.55
2023-05-07T22:56:16.112Z,100475.34
2023-05-07T22:58:49.864Z,100484.47
2023-05-07T23:01:23.023Z,100491.51
2023-05-07T23:03:55.953Z,100484.69
2023-05-07T23:06:28.743Z,100489.30
2023-05-07T23:09:01.624Z,100495.31
2023-05-07T23:11:34.434Z,100490.50
2023-05-07T23:14:07.347Z,100483.41
2023-05-07T23:16:40.162Z,100490.92
2023-05-07T23:19:13.255Z,100489.99
2023-05-07T23:21:45.882Z,100480.80
2023-05-07T23:24:18.607Z,100475.27
2023-05-07T23:26:51.404Z,100476.67
2023-05-07T23:29:24.673Z,100474.85
2023-05-07T23:31:57.695Z,100475.17
2023-05-07T23:34:30.714Z,100469.06
2023-05-07T23:37:03.640Z,100469.06
2023-05-07T23:39:36.497Z,100467.75
2023-05-07T23:42:10.330Z,100476.47
2023-05-07T23:44:43.219Z,100487.70
2023-05-07T23:47:16.930Z,100483.02
2023-05-07T23:49:50.473Z,100483.02
2023-05-07T23:52:23.203Z,100479.00
2023-05-07T23:54:56.624Z,100481.98
2023-05-07T23:57:29.511Z,100471.67
